Taftsville, VT (05073)

1:08 PM EST on November 26, 2014 (GMT -0500)
Quechee Lakes Sec 1 | Change Station
CLOSE
Current Station
Personal Weather Station
Location: Quechee, VT
Elevation: 1180 ft
Nearby Weather Stations
Active Advisory: Winter Storm Warning

Elev 1180 ft 43.65 °N, 72.46 °W | Updated 1 second ago

Snow
Snow
29.3 °F
Feels Like 29 °F
N
0.9
Wind Variable Wind from NNE
Gusts 1.3 mph

Today
High -- | Low -- °F
--% Chance of Precip.
Yesterday
High -- | Low -- °F
Precip. -- in
6:57 AM 4:16 PM
Waxing Crescent, 21% visible
Pressure 30.10 in
Visibility 0.5 miles
Clouds Overcast 300 ft
Windchill 29 °F
Dew Point 26 °F
Humidity 88%
Rainfall 0.04 in
Snow Depth Not available.
UV 1 out of 12
Pollen .10 out of 12
Air Quality Not available.
Flu Activity Not available.
SPECI KLEB 261805Z 01005KT 1/2SM SN FG OVC003 00/M01 A3010 RMK AO2 PRESFR P0002 T00001011

More Conditions Fewer Conditions

Pressure 30.10 in
Visibility 0.5 miles
Clouds Overcast 300 ft
Windchill 29 °F
Dew Point 26 °F
Humidity 88%
Rainfall 0.04 in
Snow Depth Not available.
UV 1 out of 12
Pollen .10 out of 12
Air Quality Not available.
Flu Activity Not available.
SPECI KLEB 261805Z 01005KT 1/2SM SN FG OVC003 00/M01 A3010 RMK AO2 PRESFR P0002 T00001011

More Conditions Fewer Conditions

10-Day Weather Forecast

Almanac

Astronomy

Nov. 26, 2014 Rise Set
Actual Time
Civil Twilight
Nautical Twilight
Astronomical Twilight
Moon
Length of Visible Light
Length of Day
Tomorrow will be .
, % of the Moon is Illuminated

Today's Extremes

State Highs State Lows

Community

WunderPhotos

Upload Photos

1,773,813 photos uploaded!

WunderBlogs® & News

Nearby

Air Quality

  Air Quality AQ Index Pollutant
Not available.

Snow Depth

Station Depth Elevation

Earthquake Activity

City Distance Mag. Time & Date
Minimum magnitude displayed is 2.5.

Coastal Water Temperatures

Place Temperature

Nearby Weather Stations